createdAt,value
2023-05-09T00:00:56.780Z,1011.5
2023-05-09T00:02:13.814Z,1011.5
2023-05-09T00:03:30.808Z,1011.5
2023-05-09T00:04:47.957Z,1011.5
2023-05-09T00:06:04.816Z,1011.5
2023-05-09T00:07:21.749Z,1011.5
2023-05-09T00:08:38.760Z,1011.5
2023-05-09T00:09:55.760Z,1011.5
2023-05-09T00:11:12.816Z,1011.5
2023-05-09T00:12:29.761Z,1011.5
2023-05-09T00:13:46.774Z,1011.5
2023-05-09T00:15:03.773Z,1011.4
2023-05-09T00:16:20.872Z,1011.4
2023-05-09T00:17:37.803Z,1011.4
2023-05-09T00:18:54.781Z,1011.4
2023-05-09T00:20:11.894Z,1011.4
2023-05-09T00:21:28.808Z,1011.3
2023-05-09T00:22:45.801Z,1011.3
2023-05-09T00:24:02.808Z,1011.3
2023-05-09T00:25:19.910Z,1011.3
2023-05-09T00:26:36.786Z,1011.3
2023-05-09T00:27:53.822Z,1011.3
2023-05-09T00:29:10.806Z,1011.3
2023-05-09T00:30:27.793Z,1011.3
2023-05-09T00:31:44.829Z,1011.4
2023-05-09T00:33:01.879Z,1011.4
2023-05-09T00:34:18.784Z,1011.3
2023-05-09T00:35:35.937Z,1011.4
2023-05-09T00:36:52.829Z,1011.3
2023-05-09T00:38:09.796Z,1011.3
2023-05-09T00:39:26.803Z,1011.3
2023-05-09T00:40:43.787Z,1011.3
2023-05-09T00:42:00.855Z,1011.2
2023-05-09T00:43:17.848Z,1011.2
2023-05-09T00:44:34.798Z,1011.2
2023-05-09T00:45:51.836Z,1011.2
2023-05-09T00:47:08.888Z,1011.2
2023-05-09T00:48:25.818Z,1011.2
2023-05-09T00:49:42.807Z,1011.1
2023-05-09T00:50:59.931Z,1011.1
2023-05-09T00:52:16.857Z,1011.2
2023-05-09T00:53:34.146Z,1011.1
2023-05-09T00:54:50.844Z,1011.1
2023-05-09T00:56:07.862Z,1011.1
2023-05-09T00:57:24.997Z,1011.1
2023-05-09T00:58:42.183Z,1011.1
2023-05-09T00:59:58.815Z,1011.1
2023-05-09T01:01:15.923Z,1011.1
2023-05-09T01:02:32.950Z,1011.1
2023-05-09T01:03:50.031Z,1011.1
2023-05-09T01:05:06.839Z,1011.1
2023-05-09T01:06:24.023Z,1011.1
2023-05-09T01:07:40.865Z,1011.1
2023-05-09T01:08:57.831Z,1011.1
2023-05-09T01:10:14.869Z,1011
2023-05-09T01:11:31.864Z,1011
2023-05-09T01:12:48.879Z,1011
2023-05-09T01:14:05.851Z,1011
2023-05-09T01:15:22.845Z,1011
2023-05-09T01:16:39.875Z,1011
2023-05-09T01:17:56.881Z,1011
2023-05-09T01:19:13.915Z,1011
2023-05-09T01:20:30.884Z,1011
2023-05-09T01:21:47.974Z,1011
2023-05-09T01:23:04.983Z,1011
2023-05-09T01:24:21.848Z,1010.9
2023-05-09T01:25:39.519Z,1010.9
2023-05-09T01:26:56.863Z,1010.9
2023-05-09T01:28:13.881Z,1010.9
2023-05-09T01:29:30.890Z,1010.9
2023-05-09T01:30:47.874Z,1010.8
2023-05-09T01:32:04.875Z,1010.8
2023-05-09T01:33:22.569Z,1010.8
2023-05-09T01:34:39.951Z,1010.8
2023-05-09T01:35:56.880Z,1010.8
2023-05-09T01:37:14.014Z,1010.8
2023-05-09T01:38:30.899Z,1010.8
2023-05-09T01:39:47.932Z,1010.8
2023-05-09T01:41:04.890Z,1010.7
2023-05-09T01:42:21.878Z,1010.7
2023-05-09T01:43:38.937Z,1010.7
2023-05-09T01:44:55.956Z,1010.8
2023-05-09T01:46:12.922Z,1010.8
2023-05-09T01:47:29.902Z,1010.7
2023-05-09T01:48:46.894Z,1010.7
2023-05-09T01:50:03.967Z,1010.7
2023-05-09T01:51:20.907Z,1010.7
2023-05-09T01:52:38.065Z,1010.7
2023-05-09T01:53:54.905Z,1010.7
2023-05-09T01:55:12.011Z,1010.7
2023-05-09T01:56:28.904Z,1010.7
2023-05-09T01:57:45.908Z,1010.7
2023-05-09T01:59:02.915Z,1010.7
2023-05-09T02:00:19.998Z,1010.7
2023-05-09T02:01:36.938Z,1010.7
2023-05-09T02:02:54.252Z,1010.7
2023-05-09T02:04:10.968Z,1010.6
2023-05-09T02:05:27.912Z,1010.7
2023-05-09T02:06:45.009Z,1010.7
2023-05-09T02:08:02.045Z,1010.7
2023-05-09T02:09:18.933Z,1010.7
2023-05-09T02:10:35.936Z,1010.7
2023-05-09T02:11:52.944Z,1010.7
2023-05-09T02:13:10.059Z,1010.7
2023-05-09T02:14:26.918Z,1010.7
2023-05-09T02:15:43.920Z,1010.7
2023-05-09T02:17:01.024Z,1010.7
2023-05-09T02:18:17.931Z,1010.7
2023-05-09T02:19:34.921Z,1010.7
2023-05-09T02:20:51.959Z,1010.7
2023-05-09T02:22:08.997Z,1010.7
2023-05-09T02:23:26.071Z,1010.7
2023-05-09T02:24:42.941Z,1010.6
2023-05-09T02:25:59.932Z,1010.6
2023-05-09T02:27:17.127Z,1010.6
2023-05-09T02:28:33.976Z,1010.6
2023-05-09T02:29:50.956Z,1010.6
2023-05-09T02:31:07.949Z,1010.6
2023-05-09T02:32:25.116Z,1010.6
2023-05-09T02:33:41.961Z,1010.6
2023-05-09T02:34:58.954Z,1010.6
2023-05-09T02:36:15.996Z,1010.6
2023-05-09T02:37:32.951Z,1010.6
2023-05-09T02:38:50.181Z,1010.6
2023-05-09T02:40:06.956Z,1010.6
2023-05-09T02:41:23.988Z,1010.6
2023-05-09T02:42:40.999Z,1010.7
2023-05-09T02:43:57.984Z,1010.7
2023-05-09T02:45:15.093Z,1010.6
2023-05-09T02:46:33.203Z,1010.7
2023-05-09T02:47:50.022Z,1010.6
2023-05-09T02:49:06.964Z,1010.5
2023-05-09T02:50:23.978Z,1010.6
2023-05-09T02:51:41.050Z,1010.6
2023-05-09T02:52:57.980Z,1010.6
2023-05-09T02:54:15.097Z,1010.6
2023-05-09T02:55:31.996Z,1010.5
2023-05-09T02:56:49.011Z,1010.5
2023-05-09T02:58:13.899Z,1010.6
2023-05-09T02:59:23.039Z,1010.5
2023-05-09T03:00:40.028Z,1010.5
2023-05-09T03:01:57.009Z,1010.5
2023-05-09T03:03:14.108Z,1010.5
2023-05-09T03:04:31.039Z,1010.5
2023-05-09T03:05:47.995Z,1010.5
2023-05-09T03:07:04.998Z,1010.5
2023-05-09T03:08:22.014Z,1010.4
2023-05-09T03:09:41.057Z,1010.4
2023-05-09T03:10:56.018Z,1010.4
2023-05-09T03:12:13.003Z,1010.4
2023-05-09T03:13:30.029Z,1010.4
2023-05-09T03:14:47.018Z,1010.4
2023-05-09T03:16:04.056Z,1010.4
2023-05-09T03:17:21.057Z,1010.4
2023-05-09T03:18:38.043Z,1010.4
2023-05-09T03:19:55.051Z,1010.4
2023-05-09T03:21:12.086Z,1010.4
2023-05-09T03:22:29.042Z,1010.4
2023-05-09T03:23:46.045Z,1010.3
2023-05-09T03:25:03.152Z,1010.3
2023-05-09T03:26:20.046Z,1010.3
2023-05-09T03:27:37.033Z,1010.3
2023-05-09T03:28:54.033Z,1010.3
2023-05-09T03:30:11.050Z,1010.3
2023-05-09T03:31:28.083Z,1010.3
2023-05-09T03:32:45.076Z,1010.3
2023-05-09T03:34:02.454Z,1010.3
2023-05-09T03:35:19.036Z,1010.3
2023-05-09T03:36:36.042Z,1010.2
2023-05-09T03:37:53.060Z,1010.2
2023-05-09T03:39:10.454Z,1010.2
2023-05-09T03:40:27.187Z,1010.3
2023-05-09T03:41:44.060Z,1010.3
2023-05-09T03:43:01.067Z,1010.2
2023-05-09T03:44:18.071Z,1010.2
2023-05-09T03:45:35.044Z,1010.2
2023-05-09T03:46:52.081Z,1010.2
2023-05-09T03:48:09.076Z,1010.3
2023-05-09T03:49:26.113Z,1010.2
2023-05-09T03:50:43.491Z,1010.2
2023-05-09T03:52:00.066Z,1010.2
2023-05-09T03:53:17.495Z,1010.2
2023-05-09T03:54:34.097Z,1010.2
2023-05-09T03:55:51.188Z,1010.2
2023-05-09T03:57:08.066Z,1010.3
2023-05-09T03:58:25.065Z,1010.3
2023-05-09T03:59:42.217Z,1010.3
2023-05-09T04:00:59.091Z,1010.3
2023-05-09T04:02:16.154Z,1010.3
2023-05-09T04:03:33.214Z,1010.3
2023-05-09T04:04:50.138Z,1010.3
2023-05-09T04:06:07.118Z,1010.3
2023-05-09T04:07:24.088Z,1010.3
2023-05-09T04:08:41.094Z,1010.3
2023-05-09T04:09:59.528Z,1010.2
2023-05-09T04:11:16.290Z,1010.2
2023-05-09T04:12:33.101Z,1010.3
2023-05-09T04:13:50.105Z,1010.3
2023-05-09T04:15:07.152Z,1010.3
2023-05-09T04:16:24.189Z,1010.3
2023-05-09T04:17:41.128Z,1010.3
2023-05-09T04:18:58.095Z,1010.3
2023-05-09T04:20:15.106Z,1010.3
2023-05-09T04:21:32.109Z,1010.3
2023-05-09T04:22:49.149Z,1010.3
2023-05-09T04:24:06.124Z,1010.3
2023-05-09T04:25:23.207Z,1010.3
2023-05-09T04:26:40.235Z,1010.2
2023-05-09T04:27:57.163Z,1010.2
2023-05-09T04:29:14.099Z,1010.3
2023-05-09T04:30:31.193Z,1010.3
2023-05-09T04:31:48.292Z,1010.3
2023-05-09T04:33:05.196Z,1010.3
2023-05-09T04:34:22.160Z,1010.3
2023-05-09T04:35:39.126Z,1010.3
2023-05-09T04:36:56.158Z,1010.3
2023-05-09T04:38:13.183Z,1010.3
2023-05-09T04:39:30.129Z,1010.3
2023-05-09T04:40:47.130Z,1010.3
2023-05-09T04:42:04.269Z,1010.3
2023-05-09T04:43:21.198Z,1010.3
2023-05-09T04:44:38.196Z,1010.3
2023-05-09T04:45:55.218Z,1010.4
2023-05-09T04:47:12.177Z,1010.3
2023-05-09T04:48:29.212Z,1010.3
2023-05-09T04:49:46.167Z,1010.3
2023-05-09T04:51:03.152Z,1010.3
2023-05-09T04:52:20.146Z,1010.3
2023-05-09T04:53:37.219Z,1010.3
2023-05-09T04:54:54.144Z,1010.3
2023-05-09T04:56:11.152Z,1010.2
2023-05-09T04:57:28.273Z,1010.3
2023-05-09T04:58:45.172Z,1010.2
2023-05-09T05:00:02.277Z,1010.3
2023-05-09T05:01:19.205Z,1010.3
2023-05-09T05:02:36.179Z,1010.2
2023-05-09T05:03:53.144Z,1010.2
2023-05-09T05:05:12.299Z,1010.2
2023-05-09T05:06:27.179Z,1010.2
2023-05-09T05:07:44.162Z,1010.2
2023-05-09T05:09:01.243Z,1010.2
2023-05-09T05:10:18.237Z,1010.2
2023-05-09T05:11:35.203Z,1010.2
2023-05-09T05:12:52.298Z,1010.2
2023-05-09T05:14:09.169Z,1010.2
2023-05-09T05:15:26.198Z,1010.2
2023-05-09T05:16:43.197Z,1010.2
2023-05-09T05:18:00.220Z,1010.2
2023-05-09T05:19:17.173Z,1010.3
2023-05-09T05:20:34.252Z,1010.3
2023-05-09T05:21:51.202Z,1010.3
2023-05-09T05:23:08.218Z,1010.3
2023-05-09T05:24:25.235Z,1010.3
2023-05-09T05:25:42.220Z,1010.3
2023-05-09T05:26:59.192Z,1010.3
2023-05-09T05:28:16.329Z,1010.3
2023-05-09T05:29:33.193Z,1010.3
2023-05-09T05:30:50.215Z,1010.3
2023-05-09T05:32:07.211Z,1010.3
2023-05-09T05:33:24.202Z,1010.3
2023-05-09T05:34:41.195Z,1010.3
2023-05-09T05:35:58.262Z,1010.3
2023-05-09T05:37:15.246Z,1010.3
2023-05-09T05:38:32.214Z,1010.4
2023-05-09T05:39:49.290Z,1010.3
2023-05-09T05:41:06.285Z,1010.3
2023-05-09T05:42:23.222Z,1010.3
2023-05-09T05:43:40.354Z,1010.3
2023-05-09T05:44:57.223Z,1010.3
2023-05-09T05:46:14.317Z,1010.3
2023-05-09T05:47:31.266Z,1010.3
2023-05-09T05:48:48.274Z,1010.3
2023-05-09T05:50:05.219Z,1010.3
2023-05-09T05:51:22.289Z,1010.3
2023-05-09T05:52:39.235Z,1010.3
2023-05-09T05:53:56.221Z,1010.3
2023-05-09T05:55:13.444Z,1010.3
2023-05-09T05:56:30.275Z,1010.3
2023-05-09T05:57:47.260Z,1010.3
2023-05-09T05:59:04.382Z,1010.2
2023-05-09T06:00:21.248Z,1010.3
2023-05-09T06:01:38.378Z,1010.3
2023-05-09T06:02:55.484Z,1010.3
2023-05-09T06:04:12.754Z,1010.2
2023-05-09T06:05:29.234Z,1010.2
2023-05-09T06:06:46.324Z,1010.2
2023-05-09T06:08:03.254Z,1010.1
2023-05-09T06:09:20.261Z,1010.1
2023-05-09T06:10:37.256Z,1010.1
2023-05-09T06:11:54.272Z,1010.1
2023-05-09T06:13:11.366Z,1010.1
2023-05-09T06:14:28.386Z,1010.1
2023-05-09T06:15:45.272Z,1010.1
2023-05-09T06:17:02.362Z,1010
2023-05-09T06:18:19.409Z,1010
2023-05-09T06:19:36.276Z,1009.9
2023-05-09T06:20:53.302Z,1009.8
2023-05-09T06:22:10.296Z,1009.6
2023-05-09T06:23:27.260Z,1009.5
2023-05-09T06:24:44.309Z,1009.3
2023-05-09T06:26:01.322Z,1009.2
2023-05-09T06:27:18.269Z,1009.1
2023-05-09T06:28:35.274Z,1009.1
2023-05-09T06:29:52.404Z,1009.1
2023-05-09T06:31:09.283Z,1009.1
2023-05-09T06:32:26.356Z,1009.1
2023-05-09T06:33:43.308Z,1009
2023-05-09T06:35:00.309Z,1009
2023-05-09T06:36:17.306Z,1009
2023-05-09T06:37:34.298Z,1009
2023-05-09T06:38:51.378Z,1009
2023-05-09T06:40:08.372Z,1009
2023-05-09T06:41:25.324Z,1009
2023-05-09T06:42:42.308Z,1009
2023-05-09T06:43:59.344Z,1009.1
2023-05-09T06:45:16.836Z,1009
2023-05-09T06:46:33.360Z,1009
2023-05-09T06:47:50.380Z,1009
2023-05-09T06:49:07.399Z,1009
2023-05-09T06:50:24.358Z,1009
2023-05-09T06:51:41.333Z,1009
2023-05-09T06:52:58.337Z,1008.9
2023-05-09T06:54:15.298Z,1009
2023-05-09T06:55:32.311Z,1009
2023-05-09T06:56:49.348Z,1009
2023-05-09T06:58:06.366Z,1009
2023-05-09T06:59:23.362Z,1008.9
2023-05-09T07:00:40.498Z,1008.9
2023-05-09T07:01:58.272Z,1008.9
2023-05-09T07:03:15.388Z,1009
2023-05-09T07:04:32.324Z,1009
2023-05-09T07:05:49.339Z,1008.9
2023-05-09T07:07:06.343Z,1008.9
2023-05-09T07:08:23.386Z,1008.9
2023-05-09T07:09:40.381Z,1008.9
2023-05-09T07:10:57.339Z,1008.9
2023-05-09T07:12:14.361Z,1008.9
2023-05-09T07:13:31.535Z,1008.9
2023-05-09T07:14:48.362Z,1008.9
2023-05-09T07:16:05.534Z,1008.9
2023-05-09T07:17:23.827Z,1008.9
2023-05-09T07:18:39.395Z,1009
2023-05-09T07:19:56.362Z,1008.9
2023-05-09T07:21:13.371Z,1008.9
2023-05-09T07:22:31.829Z,1009
2023-05-09T07:23:47.358Z,1009
2023-05-09T07:25:04.431Z,1009
2023-05-09T07:26:21.453Z,1009
2023-05-09T07:27:38.409Z,1009
2023-05-09T07:28:55.384Z,1009
2023-05-09T07:30:12.507Z,1009
2023-05-09T07:31:29.586Z,1009
2023-05-09T07:32:46.460Z,1008.9
2023-05-09T07:34:03.397Z,1009
2023-05-09T07:35:20.455Z,1008.9
2023-05-09T07:37:54.374Z,1008.9
2023-05-09T07:39:11.387Z,1008.8
2023-05-09T07:40:28.441Z,1008.8
2023-05-09T07:41:45.967Z,1008.8
2023-05-09T07:43:02.430Z,1008.8
2023-05-09T07:44:19.391Z,1008.8
2023-05-09T07:45:36.582Z,1008.7
2023-05-09T07:46:53.509Z,1008.7
2023-05-09T07:48:10.465Z,1008.8
2023-05-09T07:49:27.395Z,1008.7
2023-05-09T07:50:44.452Z,1008.7
2023-05-09T07:52:01.489Z,1008.6
2023-05-09T07:53:18.412Z,1008.6
2023-05-09T07:54:35.398Z,1008.6
2023-05-09T07:55:52.475Z,1008.6
2023-05-09T07:57:09.414Z,1008.6
2023-05-09T07:58:26.426Z,1008.6
2023-05-09T07:59:43.402Z,1008.6
2023-05-09T08:01:00.461Z,1008.7
2023-05-09T08:02:17.586Z,1008.6
2023-05-09T08:03:34.508Z,1008.6
2023-05-09T08:04:51.439Z,1008.6
2023-05-09T08:06:08.486Z,1008.6
2023-05-09T08:07:25.430Z,1008.6
2023-05-09T08:08:42.829Z,1008.6
2023-05-09T08:09:59.444Z,1008.6
2023-05-09T08:11:16.477Z,1008.6
2023-05-09T08:12:33.509Z,1008.6
2023-05-09T08:13:50.452Z,1008.6
2023-05-09T08:15:07.735Z,1008.7
2023-05-09T08:16:24.524Z,1008.6
2023-05-09T08:17:41.628Z,1008.6
2023-05-09T08:18:58.560Z,1008.6
2023-05-09T08:20:15.460Z,1008.6
2023-05-09T08:21:32.455Z,1008.6
2023-05-09T08:22:49.459Z,1008.6
2023-05-09T08:24:06.584Z,1008.6
2023-05-09T08:25:23.488Z,1008.5
2023-05-09T08:26:40.447Z,1008.5
2023-05-09T08:27:57.453Z,1008.6
2023-05-09T08:29:14.551Z,1008.5
2023-05-09T08:30:31.466Z,1008.5
2023-05-09T08:31:48.539Z,1008.5
2023-05-09T08:33:05.637Z,1008.5
2023-05-09T08:34:22.501Z,1008.5
2023-05-09T08:35:39.494Z,1008.5
2023-05-09T08:36:56.527Z,1008.5
2023-05-09T08:38:13.472Z,1008.5
2023-05-09T08:39:30.512Z,1008.4
2023-05-09T08:40:47.486Z,1008.4
2023-05-09T08:42:04.509Z,1008.4
2023-05-09T08:43:21.512Z,1008.4
2023-05-09T08:44:38.527Z,1008.4
2023-05-09T08:45:55.493Z,1008.4
2023-05-09T08:47:12.604Z,1008.4
2023-05-09T08:48:29.639Z,1008.4
2023-05-09T08:49:46.528Z,1008.3
2023-05-09T08:51:03.896Z,1008.4
2023-05-09T08:52:20.532Z,1008.4
2023-05-09T08:53:37.507Z,1008.4
2023-05-09T08:54:54.503Z,1008.4
2023-05-09T08:56:11.522Z,1008.3
2023-05-09T08:57:28.536Z,1008.3
2023-05-09T08:58:45.520Z,1008.3
2023-05-09T09:00:02.578Z,1008.3
2023-05-09T09:01:19.558Z,1008.3
2023-05-09T09:02:36.522Z,1008.3
2023-05-09T09:03:53.572Z,1008.3
2023-05-09T09:05:19.792Z,1008.3
2023-05-09T09:06:27.560Z,1008.3
2023-05-09T09:07:44.660Z,1008.2
2023-05-09T09:09:01.530Z,1008.2
2023-05-09T09:10:18.539Z,1008.2
2023-05-09T09:11:35.551Z,1008.2
2023-05-09T09:12:52.591Z,1008.1
2023-05-09T09:14:09.535Z,1008.2
2023-05-09T09:15:26.579Z,1008.2
2023-05-09T09:16:43.706Z,1008.2
2023-05-09T09:18:00.609Z,1008.3
2023-05-09T09:19:17.702Z,1008.3
2023-05-09T09:20:34.527Z,1008.2
2023-05-09T09:21:51.569Z,1008.2
2023-05-09T09:23:09.918Z,1008.2
2023-05-09T09:24:26.541Z,1008.2
2023-05-09T09:25:43.545Z,1008.2
2023-05-09T09:27:00.574Z,1008.2
2023-05-09T09:28:17.553Z,1008.2
2023-05-09T09:29:34.592Z,1008.1
2023-05-09T09:30:51.590Z,1008
2023-05-09T09:32:08.581Z,1008.1
2023-05-09T09:33:25.558Z,1008.1
2023-05-09T09:34:42.785Z,1008.1
2023-05-09T09:35:59.571Z,1008.1
2023-05-09T09:37:16.609Z,1008.1
2023-05-09T09:38:33.608Z,1008.1
2023-05-09T09:39:50.592Z,1008.1
2023-05-09T09:41:07.583Z,1008.1
2023-05-09T09:42:24.585Z,1008.1
2023-05-09T09:43:41.573Z,1008.1
2023-05-09T09:44:58.590Z,1008.1
2023-05-09T09:46:15.631Z,1008.1
2023-05-09T09:47:32.681Z,1008.1
2023-05-09T09:48:49.586Z,1008.1
2023-05-09T09:50:06.716Z,1008.1
2023-05-09T09:51:23.613Z,1008.1
2023-05-09T09:52:40.659Z,1008.1
2023-05-09T09:53:57.591Z,1008.2
2023-05-09T09:55:14.637Z,1008.1
2023-05-09T09:56:31.596Z,1008.2
2023-05-09T09:57:48.646Z,1008.1
2023-05-09T09:59:05.621Z,1008.1
2023-05-09T10:00:22.649Z,1008.1
2023-05-09T10:01:39.691Z,1008.1
2023-05-09T10:02:56.701Z,1008
2023-05-09T10:04:13.623Z,1008
2023-05-09T10:05:30.765Z,1007.9
2023-05-09T10:06:47.628Z,1007.9
2023-05-09T10:08:04.752Z,1007.9
2023-05-09T10:09:21.625Z,1007.9
2023-05-09T10:10:38.920Z,1007.9
2023-05-09T10:11:55.646Z,1007.9
2023-05-09T10:13:12.695Z,1007.9
2023-05-09T10:14:29.629Z,1007.9
2023-05-09T10:15:53.363Z,1007.9
2023-05-09T10:17:03.787Z,1007.9
2023-05-09T10:18:20.870Z,1007.8
2023-05-09T10:19:37.634Z,1007.9
2023-05-09T10:20:54.772Z,1007.9
2023-05-09T10:22:11.647Z,1007.9
2023-05-09T10:23:28.659Z,1007.9
2023-05-09T10:24:45.660Z,1007.9
2023-05-09T10:26:02.660Z,1007.9
2023-05-09T10:27:19.671Z,1007.9
2023-05-09T10:28:36.736Z,1007.8
2023-05-09T10:29:53.649Z,1007.9
2023-05-09T10:31:10.708Z,1007.9
2023-05-09T10:32:27.705Z,1007.9
2023-05-09T10:33:44.669Z,1007.9
2023-05-09T10:35:01.703Z,1007.9
2023-05-09T10:36:18.790Z,1007.9
2023-05-09T10:37:35.723Z,1007.9
2023-05-09T10:38:52.680Z,1007.8
2023-05-09T10:40:09.665Z,1007.8
2023-05-09T10:41:26.648Z,1007.8
2023-05-09T10:42:43.688Z,1007.8
2023-05-09T10:44:00.673Z,1007.7
2023-05-09T10:45:18.042Z,1007.7
2023-05-09T10:46:34.764Z,1007.6
2023-05-09T10:47:51.695Z,1007.6
2023-05-09T10:49:08.698Z,1007.6
2023-05-09T10:50:25.686Z,1007.7
2023-05-09T10:51:42.801Z,1007.6
2023-05-09T10:52:59.705Z,1007.6
2023-05-09T10:54:16.706Z,1007.6
2023-05-09T10:55:33.712Z,1007.6
2023-05-09T10:56:50.743Z,1007.6
2023-05-09T10:58:07.751Z,1007.6
2023-05-09T10:59:24.683Z,1007.5
2023-05-09T11:00:41.696Z,1007.6
2023-05-09T11:01:58.732Z,1007.6
2023-05-09T11:03:15.910Z,1007.5
2023-05-09T11:04:32.683Z,1007.5
2023-05-09T11:05:49.700Z,1007.5
2023-05-09T11:07:06.847Z,1007.4
2023-05-09T11:08:23.745Z,1007.4
2023-05-09T11:09:40.704Z,1007.4
2023-05-09T11:10:57.721Z,1007.4
2023-05-09T11:12:14.746Z,1007.3
2023-05-09T11:13:32.786Z,1007.3
2023-05-09T11:14:49.735Z,1007.3
2023-05-09T11:16:06.740Z,1007.4
2023-05-09T11:17:23.805Z,1007.3
2023-05-09T11:18:40.782Z,1007.3
2023-05-09T11:19:57.739Z,1007.3
2023-05-09T11:21:14.752Z,1007.2
2023-05-09T11:22:31.847Z,1007.2
2023-05-09T11:23:48.744Z,1007.2
2023-05-09T11:25:05.734Z,1007.2
2023-05-09T11:26:22.756Z,1007.2
2023-05-09T11:27:39.739Z,1007.2
2023-05-09T11:28:56.782Z,1007.1
2023-05-09T11:30:13.733Z,1007
2023-05-09T11:31:30.752Z,1007.1
2023-05-09T11:32:47.834Z,1007.1
2023-05-09T11:34:04.760Z,1007
2023-05-09T11:35:21.751Z,1007
2023-05-09T11:36:38.747Z,1007
2023-05-09T11:37:55.876Z,1007
2023-05-09T11:39:12.833Z,1007
2023-05-09T11:40:29.779Z,1007
2023-05-09T11:41:46.767Z,1007
2023-05-09T11:43:03.810Z,1006.9
2023-05-09T11:44:20.854Z,1006.9
2023-05-09T11:45:37.793Z,1006.9
2023-05-09T11:46:54.756Z,1006.9
2023-05-09T11:48:11.803Z,1006.9
2023-05-09T11:49:28.784Z,1006.9
2023-05-09T11:50:45.806Z,1006.8
2023-05-09T11:52:02.789Z,1006.7
2023-05-09T11:53:19.909Z,1006.8
2023-05-09T11:54:36.810Z,1006.7
2023-05-09T11:55:53.827Z,1006.7
2023-05-09T11:57:10.787Z,1006.7
2023-05-09T11:58:27.823Z,1006.7
2023-05-09T11:59:44.831Z,1006.7
2023-05-09T12:01:01.789Z,1006.7
2023-05-09T12:02:18.842Z,1006.7
2023-05-09T12:03:35.860Z,1006.7
2023-05-09T12:04:52.800Z,1006.7
2023-05-09T12:06:09.787Z,1006.7
2023-05-09T12:07:26.800Z,1006.6
2023-05-09T12:08:43.980Z,1006.6
2023-05-09T12:10:00.794Z,1006.5
2023-05-09T12:11:17.832Z,1006.5
2023-05-09T12:12:34.869Z,1006.5
2023-05-09T12:13:51.835Z,1006.5
2023-05-09T12:15:08.828Z,1006.5
2023-05-09T12:16:25.874Z,1006.4
2023-05-09T12:17:42.836Z,1006.5
2023-05-09T12:18:59.834Z,1006.5
2023-05-09T12:20:16.840Z,1006.5
2023-05-09T12:21:33.854Z,1006.5
2023-05-09T12:22:50.816Z,1006.5
2023-05-09T12:24:08.012Z,1006.4
2023-05-09T12:25:24.823Z,1006.4
2023-05-09T12:26:41.817Z,1006.4
2023-05-09T12:27:58.834Z,1006.5
2023-05-09T12:29:15.856Z,1006.4
2023-05-09T12:30:32.854Z,1006.4
2023-05-09T12:31:49.897Z,1006.4
2023-05-09T12:33:06.903Z,1006.3
2023-05-09T12:34:23.884Z,1006.3
2023-05-09T12:35:40.903Z,1006.3
2023-05-09T12:36:57.832Z,1006.3
2023-05-09T12:38:14.870Z,1006.3
2023-05-09T12:39:31.994Z,1006.3
2023-05-09T12:40:48.873Z,1006.3
2023-05-09T12:42:05.882Z,1006.3
2023-05-09T12:43:22.871Z,1006.3
2023-05-09T12:44:39.879Z,1006.2
2023-05-09T12:45:56.893Z,1006.1
2023-05-09T12:47:13.935Z,1006.1
2023-05-09T12:48:30.886Z,1006.1
2023-05-09T12:49:47.897Z,1006.1
2023-05-09T12:51:04.875Z,1006.1
2023-05-09T12:52:21.888Z,1006.1
2023-05-09T12:53:38.870Z,1006.1
2023-05-09T12:54:56.033Z,1006
2023-05-09T12:56:12.869Z,1006
2023-05-09T12:57:31.500Z,1006
2023-05-09T12:58:46.889Z,1005.9
2023-05-09T13:00:03.944Z,1005.9
2023-05-09T13:01:20.958Z,1005.9
2023-05-09T13:02:38.010Z,1005.9
2023-05-09T13:03:54.935Z,1005.9
2023-05-09T13:05:11.912Z,1005.9
2023-05-09T13:06:28.937Z,1005.9
2023-05-09T13:07:45.955Z,1005.9
2023-05-09T13:09:03.005Z,1005.9
2023-05-09T13:10:20.118Z,1005.8
2023-05-09T13:11:36.948Z,1005.8
2023-05-09T13:12:53.940Z,1005.8
2023-05-09T13:14:10.932Z,1005.8
2023-05-09T13:15:27.914Z,1005.7
2023-05-09T13:16:44.946Z,1005.7
2023-05-09T13:18:01.993Z,1005.6
2023-05-09T13:19:19.205Z,1005.7
2023-05-09T13:20:35.901Z,1005.7
2023-05-09T13:21:52.920Z,1005.7
2023-05-09T13:23:09.920Z,1005.6
2023-05-09T13:24:26.953Z,1005.6
2023-05-09T13:25:44.044Z,1005.6
2023-05-09T13:27:00.972Z,1005.7
2023-05-09T13:28:17.937Z,1005.7
2023-05-09T13:29:35.002Z,1005.6
2023-05-09T13:30:51.977Z,1005.5
2023-05-09T13:32:09.023Z,1005.5
2023-05-09T13:33:26.710Z,1005.5
2023-05-09T13:34:42.963Z,1005.5
2023-05-09T13:35:59.946Z,1005.4
2023-05-09T13:37:16.943Z,1005.4
2023-05-09T13:38:34.033Z,1005.4
2023-05-09T13:39:50.974Z,1005.4
2023-05-09T13:41:08.120Z,1005.4
2023-05-09T13:42:25.085Z,1005.5
2023-05-09T13:43:41.953Z,1005.5
2023-05-09T13:44:58.985Z,1005.4
2023-05-09T13:46:16.079Z,1005.4
2023-05-09T13:47:33.012Z,1005.4
2023-05-09T13:48:49.962Z,1005.4
2023-05-09T13:50:07.010Z,1005.3
2023-05-09T13:51:23.986Z,1005.3
2023-05-09T13:52:40.985Z,1005.2
2023-05-09T13:53:57.974Z,1005.2
2023-05-09T13:55:14.998Z,1005.3
2023-05-09T13:56:32.112Z,1005.2
2023-05-09T13:57:49.027Z,1005.1
2023-05-09T13:59:05.998Z,1005.1
2023-05-09T14:00:23.001Z,1005.1
2023-05-09T14:01:40.075Z,1005.1
2023-05-09T14:02:57.084Z,1005.1
2023-05-09T14:04:14.064Z,1005.1
2023-05-09T14:05:31.044Z,1005.1
2023-05-09T14:06:47.985Z,1005.1
2023-05-09T14:08:05.023Z,1005.1
2023-05-09T14:09:21.995Z,1005
2023-05-09T14:10:38.989Z,1005
2023-05-09T14:11:56.140Z,1005
2023-05-09T14:13:13.023Z,1005
2023-05-09T14:14:30.019Z,1005
2023-05-09T14:15:47.169Z,1004.9
2023-05-09T14:17:04.012Z,1004.9
2023-05-09T14:18:21.365Z,1004.9
2023-05-09T14:19:38.032Z,1004.9
2023-05-09T14:20:55.020Z,1004.9
2023-05-09T14:22:12.056Z,1004.8
2023-05-09T14:23:29.087Z,1004.8
2023-05-09T14:24:46.015Z,1004.9
2023-05-09T14:26:03.278Z,1004.8
2023-05-09T14:27:20.263Z,1004.8
2023-05-09T14:28:37.058Z,1004.8
2023-05-09T14:29:54.087Z,1004.8
2023-05-09T14:31:11.282Z,1004.7
2023-05-09T14:32:28.089Z,1004.7
2023-05-09T14:33:45.057Z,1004.7
2023-05-09T14:35:02.223Z,1004.7
2023-05-09T14:36:19.149Z,1004.7
2023-05-09T14:37:36.068Z,1004.7
2023-05-09T14:38:53.061Z,1004.7
2023-05-09T14:40:10.066Z,1004.6
2023-05-09T14:41:27.168Z,1004.6
2023-05-09T14:42:44.220Z,1004.6
2023-05-09T14:44:01.059Z,1004.6
2023-05-09T14:45:18.053Z,1004.6
2023-05-09T14:46:35.151Z,1004.6
2023-05-09T14:47:53.290Z,1004.6
2023-05-09T14:49:10.128Z,1004.6
2023-05-09T14:50:27.056Z,1004.5
2023-05-09T14:51:44.084Z,1004.5
2023-05-09T14:53:01.109Z,1004.6
2023-05-09T14:54:18.157Z,1004.5
2023-05-09T14:55:35.082Z,1004.5
2023-05-09T14:56:52.348Z,1004.5
2023-05-09T14:58:09.196Z,1004.5
2023-05-09T14:59:26.097Z,1004.4
2023-05-09T15:00:43.095Z,1004.4
2023-05-09T15:02:00.204Z,1004.4
2023-05-09T15:03:17.122Z,1004.4
2023-05-09T15:04:34.152Z,1004.3
2023-05-09T15:05:51.085Z,1004.3
2023-05-09T15:07:08.141Z,1004.3
2023-05-09T15:08:25.103Z,1004.4
2023-05-09T15:09:42.113Z,1004.4
2023-05-09T15:10:59.099Z,1004.4
2023-05-09T15:12:16.120Z,1004.4
2023-05-09T15:13:33.234Z,1004.4
2023-05-09T15:14:50.103Z,1004.4
2023-05-09T15:16:07.199Z,1004.4
2023-05-09T15:17:24.106Z,1004.4
2023-05-09T15:18:41.157Z,1004.4
2023-05-09T15:19:58.112Z,1004.4
2023-05-09T15:21:15.139Z,1004.4
2023-05-09T15:22:32.137Z,1004.4
2023-05-09T15:23:49.772Z,1004.3
2023-05-09T15:25:06.320Z,1004.3
2023-05-09T15:26:23.113Z,1004.3
2023-05-09T15:27:40.238Z,1004.2
2023-05-09T15:28:57.320Z,1004.1
2023-05-09T15:30:14.502Z,1004.1
2023-05-09T15:31:31.346Z,1004.1
2023-05-09T15:32:48.251Z,1004.1
2023-05-09T15:34:05.211Z,1004.2
2023-05-09T15:35:22.157Z,1004.1
2023-05-09T15:36:39.214Z,1004.1
2023-05-09T15:37:56.155Z,1004.1
2023-05-09T15:39:13.169Z,1004.1
2023-05-09T15:40:30.217Z,1004.1
2023-05-09T15:41:47.141Z,1004.1
2023-05-09T15:43:05.922Z,1004.1
2023-05-09T15:44:21.274Z,1004.1
2023-05-09T15:45:38.225Z,1004.1
2023-05-09T15:46:55.402Z,1004.1
2023-05-09T15:48:12.408Z,1004.1
2023-05-09T15:49:29.161Z,1004.1
2023-05-09T15:50:46.219Z,1004.1
2023-05-09T15:52:03.180Z,1004.1
2023-05-09T15:53:20.203Z,1004.1
2023-05-09T15:54:37.256Z,1004.1
2023-05-09T15:55:54.287Z,1004
2023-05-09T15:57:11.175Z,1004
2023-05-09T15:58:28.180Z,1004
2023-05-09T15:59:45.405Z,1004
2023-05-09T16:01:02.214Z,1004
2023-05-09T16:02:19.218Z,1003.9
2023-05-09T16:03:36.245Z,1003.9
2023-05-09T16:04:53.185Z,1003.9
2023-05-09T16:06:10.219Z,1003.9
2023-05-09T16:07:27.229Z,1003.9